CheckWX is a tool to help pilots better visualize weather data.  It is not intended as a substitute for an official pre-flight weather briefing.

00:12:21 UTC

KRNH METAR
New Richmond Regional Airport
New Richmond, Wisconsin, USA
Current

17 mins ago

KRNH 062355Z AUTO 28005KT 10SM CLR 28/20 A2994 RMK AO2 T02760199 10292 20244
Observed
Jul-6 @ 23:55 UTC
Wind
  • 280° at 5 KTS
Visibility
10 SM
Flight Rules
VFR
Cloud Levels
  • Clear skies
Temperature
28°C / 82°F
Dewpoint
20°C / 68°F
Humidity
62%
Altimeter
29.94" Hg
Pressure
1013.92 hPa
Previous

37 mins ago

KRNH 062335Z AUTO 25005KT 10SM CLR 28/20 A2994 RMK AO2 T02800196
Observed
Jul-6 @ 23:35 UTC
Wind
  • 250° at 5 KTS
Visibility
10 SM
Flight Rules
VFR
Cloud Levels
  • Clear skies
Temperature
28°C / 82°F
Dewpoint
20°C / 68°F
Humidity
62%
Altimeter
29.94" Hg
Pressure
1013.92 hPa
Previous

57 mins ago

KRNH 062315Z AUTO 26005KT 10SM CLR 28/19 A2994 RMK AO2 T02760188
Observed
Jul-6 @ 23:15 UTC
Wind
  • 260° at 5 KTS
Visibility
10 SM
Flight Rules
VFR
Cloud Levels
  • Clear skies
Temperature
28°C / 82°F
Dewpoint
19°C / 66°F
Humidity
58%
Altimeter
29.94" Hg
Pressure
1013.92 hPa